Time;durP1;ratioP1;P1;durP2;ratioP2;P2;SDS_P1;SDS_P2;PMS_P1;PMS_P2;Temp;Humidity;BMP_temperature;BMP_pressure;BME280_temperature;BME280_humidity;BME280_pressure;Samples;Min_cycle;Max_cycle;Signal;HPM_P1;HPM_P2
2022/11/27 00:02:21;;;;;;;;;;;10.30;99.90;;;;;;4985676;28;19965;-73
2022/11/27 00:04:47;;;;;;;;;;;10.30;99.90;;;;;;4986097;28;20309;-73
2022/11/27 00:07:12;;;;;;;;;;;10.20;99.90;;;;;;4990117;28;20000;-73
2022/11/27 00:09:38;;;;;;;;;;;10.20;99.90;;;;;;4989710;28;19917;-73
2022/11/27 00:12:03;;;;;;;;;;;10.20;99.90;;;;;;5001940;28;19917;-73
2022/11/27 00:14:29;;;;;;;;;;;10.20;99.90;;;;;;4985758;28;19921;-73
2022/11/27 00:16:56;;;;;;;;;;;10.20;99.90;;;;;;4988835;28;19940;-72
2022/11/27 00:19:22;;;;;;;;;;;10.20;99.90;;;;;;4986650;28;19917;-73
2022/11/27 00:21:47;;;;;;;;;;;10.20;99.90;;;;;;5001981;28;20342;-74
2022/11/27 00:24:13;;;;;;;;;;;10.20;99.90;;;;;;4982401;28;19916;-74
2022/11/27 00:26:38;;;;;;;;;;;10.20;99.90;;;;;;4981888;28;19918;-73
2022/11/27 00:29:04;;;;;;;;;;;10.10;99.90;;;;;;4982209;28;19917;-73
2022/11/27 00:31:31;;;;;;;;;;;10.20;99.90;;;;;;4998810;28;19921;-74
2022/11/27 00:33:58;;;;;;;;;;;10.20;99.90;;;;;;4981407;28;20330;-75
2022/11/27 00:36:24;;;;;;;;;;;10.10;99.90;;;;;;4982661;28;20292;-74
2022/11/27 00:38:50;;;;;;;;;;;10.10;99.90;;;;;;4982577;28;19986;-74
2022/11/27 00:41:17;;;;;;;;;;;10.10;99.90;;;;;;4983422;28;19913;-73
2022/11/27 00:43:43;;;;;;;;;;;10.20;99.90;;;;;;4983079;28;20428;-73
2022/11/27 00:46:08;;;;;;;;;;;10.10;99.90;;;;;;4983664;28;20040;-73
2022/11/27 00:48:34;;;;;;;;;;;10.10;99.90;;;;;;4984013;28;19913;-72
2022/11/27 00:51:04;;;;;;;;;;;10.10;99.90;;;;;;4984162;28;19909;-72
2022/11/27 00:53:29;;;;;;;;;;;10.10;99.90;;;;;;4984445;28;19918;-73
2022/11/27 00:55:55;;;;;;;;;;;10.10;99.90;;;;;;4984977;28;19910;-72
2022/11/27 00:58:21;;;;;;;;;;;10.10;99.90;;;;;;4994702;28;19914;-73
2022/11/27 01:00:53;;;;;;;;;;;10.10;99.90;;;;;;4987237;28;19972;-74
2022/11/27 01:03:18;;;;;;;;;;;10.00;99.90;;;;;;4987322;28;20138;-73
2022/11/27 01:05:44;;;;;;;;;;;10.00;99.90;;;;;;4986436;28;19917;-73
2022/11/27 01:08:09;;;;;;;;;;;10.00;99.90;;;;;;4996045;28;19920;-73
2022/11/27 01:10:35;;;;;;;;;;;10.00;99.90;;;;;;4996303;28;19918;-73
2022/11/27 01:13:00;;;;;;;;;;;10.00;99.90;;;;;;4986086;28;19916;-73
2022/11/27 01:15:26;;;;;;;;;;;10.00;99.90;;;;;;4985679;28;20004;-73
2022/11/27 01:17:51;;;;;;;;;;;10.00;99.90;;;;;;4988988;28;19913;-73
2022/11/27 01:20:17;;;;;;;;;;;10.00;99.90;;;;;;4985893;28;20001;-74
2022/11/27 01:22:42;;;;;;;;;;;10.10;99.90;;;;;;4986234;28;19921;-73
2022/11/27 01:25:08;;;;;;;;;;;10.00;99.90;;;;;;4988109;28;19962;-73
2022/11/27 01:27:33;;;;;;;;;;;9.90;99.90;;;;;;4983309;28;19952;-73
2022/11/27 01:29:59;;;;;;;;;;;10.00;99.90;;;;;;4986299;28;19909;-73
2022/11/27 01:32:24;;;;;;;;;;;9.90;99.90;;;;;;4980287;28;19984;-74
2022/11/27 01:34:50;;;;;;;;;;;9.90;99.90;;;;;;4982270;28;19921;-73
2022/11/27 01:37:15;;;;;;;;;;;9.90;99.90;;;;;;4982326;28;19993;-75
2022/11/27 01:39:41;;;;;;;;;;;10.00;99.90;;;;;;4982252;28;19916;-73
2022/11/27 01:42:09;;;;;;;;;;;9.90;99.90;;;;;;4983972;28;19918;-73
2022/11/27 01:44:34;;;;;;;;;;;9.90;99.90;;;;;;4984902;28;19914;-74
2022/11/27 01:47:10;;;;;;;;;;;9.80;99.90;;;;;;4987128;28;20347;-75
2022/11/27 01:49:38;;;;;;;;;;;9.70;99.90;;;;;;4983666;28;19933;-75
2022/11/27 01:52:07;;;;;;;;;;;9.70;99.90;;;;;;4997474;28;20007;-74
2022/11/27 01:54:52;;;;;;;;;;;9.80;99.90;;;;;;4984176;28;19981;-74
2022/11/27 01:57:21;;;;;;;;;;;9.80;99.90;;;;;;4983044;28;19960;-75
2022/11/27 01:59:47;;;;;;;;;;;9.70;99.90;;;;;;4986997;28;19925;-73
2022/11/27 02:02:13;;;;;;;;;;;9.60;99.90;;;;;;4987088;28;19917;-74
2022/11/27 02:04:38;;;;;;;;;;;9.70;99.90;;;;;;4996391;28;19910;-74
2022/11/27 02:07:04;;;;;;;;;;;9.60;99.90;;;;;;5005310;28;19918;-74
2022/11/27 02:09:30;;;;;;;;;;;9.60;99.90;;;;;;5003343;28;20010;-74
2022/11/27 02:11:56;;;;;;;;;;;9.60;99.90;;;;;;4993687;28;19920;-74
2022/11/27 02:14:40;;;;;;;;;;;9.60;99.90;;;;;;4989543;28;20028;-73
2022/11/27 02:17:31;;;;;;;;;;;9.70;99.90;;;;;;4987651;28;19954;-74
2022/11/27 02:20:15;;;;;;;;;;;9.70;99.90;;;;;;4983623;28;20301;-73
2022/11/27 02:22:41;;;;;;;;;;;9.60;99.90;;;;;;4984465;28;19918;-72
2022/11/27 02:25:06;;;;;;;;;;;9.60;99.90;;;;;;4983275;28;20175;-73
2022/11/27 02:27:42;;;;;;;;;;;9.60;99.90;;;;;;5000950;28;20372;-73
2022/11/27 02:30:08;;;;;;;;;;;9.60;99.90;;;;;;4987936;28;19949;-74
2022/11/27 02:32:45;;;;;;;;;;;9.60;99.90;;;;;;4998665;28;20392;-72
2022/11/27 02:35:13;;;;;;;;;;;9.60;99.90;;;;;;4999903;28;20268;-74
2022/11/27 02:37:49;;;;;;;;;;;9.60;99.90;;;;;;4985236;28;19945;-75
2022/11/27 02:40:24;;;;;;;;;;;9.60;99.90;;;;;;4984022;28;19957;-75
2022/11/27 02:42:59;;;;;;;;;;;9.70;99.90;;;;;;4985072;28;19917;-74
2022/11/27 02:45:27;;;;;;;;;;;9.70;99.90;;;;;;4986956;28;20440;-74
2022/11/27 02:47:54;;;;;;;;;;;9.70;99.90;;;;;;4980880;28;20121;-74
2022/11/27 02:50:21;;;;;;;;;;;9.60;99.90;;;;;;4986676;28;19981;-74
2022/11/27 02:52:47;;;;;;;;;;;9.70;99.90;;;;;;5000538;28;19985;-74
2022/11/27 02:55:15;;;;;;;;;;;9.50;99.90;;;;;;4987711;28;19918;-75
2022/11/27 02:57:42;;;;;;;;;;;9.50;99.90;;;;;;5007666;28;19977;-74
2022/11/27 03:00:08;;;;;;;;;;;9.50;99.90;;;;;;4994893;28;19917;-74
2022/11/27 03:02:35;;;;;;;;;;;9.40;99.90;;;;;;4989761;28;20016;-74
2022/11/27 03:05:03;;;;;;;;;;;9.50;99.90;;;;;;4988880;28;20009;-74
2022/11/27 03:07:34;;;;;;;;;;;9.50;99.90;;;;;;4986452;28;19963;-74
2022/11/27 03:10:03;;;;;;;;;;;9.50;99.90;;;;;;4988092;28;20392;-73
2022/11/27 03:12:28;;;;;;;;;;;9.40;99.90;;;;;;4990683;28;19961;-75
2022/11/27 03:14:54;;;;;;;;;;;9.30;99.90;;;;;;4991821;28;19968;-74
2022/11/27 03:17:29;;;;;;;;;;;9.40;99.90;;;;;;4985619;28;19955;-75
2022/11/27 03:20:01;;;;;;;;;;;9.40;99.90;;;;;;4986427;28;19914;-74
2022/11/27 03:22:27;;;;;;;;;;;9.40;99.90;;;;;;4986107;28;20000;-74
2022/11/27 03:24:53;;;;;;;;;;;9.30;99.90;;;;;;4989961;28;20016;-74
2022/11/27 03:27:21;;;;;;;;;;;9.30;99.90;;;;;;4990085;28;20031;-75
2022/11/27 03:29:48;;;;;;;;;;;9.20;99.90;;;;;;4984987;28;20125;-76
2022/11/27 03:32:14;;;;;;;;;;;9.20;99.90;;;;;;4988371;28;20008;-74
2022/11/27 03:34:39;;;;;;;;;;;9.10;99.90;;;;;;4985150;28;20385;-74
2022/11/27 03:37:05;;;;;;;;;;;9.10;99.90;;;;;;4989039;28;19914;-74
2022/11/27 03:39:31;;;;;;;;;;;9.10;99.90;;;;;;4987828;28;20240;-74
2022/11/27 03:42:06;;;;;;;;;;;9.10;99.90;;;;;;4990079;28;19909;-74
2022/11/27 03:44:37;;;;;;;;;;;9.00;99.90;;;;;;4989132;28;19914;-74
2022/11/27 03:47:21;;;;;;;;;;;9.00;99.90;;;;;;4991537;28;20378;-74
2022/11/27 03:50:12;;;;;;;;;;;8.90;99.90;;;;;;4994748;28;20275;-75
2022/11/27 03:52:41;;;;;;;;;;;8.90;99.90;;;;;;4990400;28;19952;-74
2022/11/27 03:55:21;;;;;;;;;;;8.90;99.90;;;;;;4990961;28;19917;-74
2022/11/27 03:58:03;;;;;;;;;;;8.90;99.90;;;;;;4992243;28;20005;-75
2022/11/27 04:00:31;;;;;;;;;;;8.90;99.90;;;;;;4986944;28;19928;-75
2022/11/27 04:02:57;;;;;;;;;;;8.80;99.90;;;;;;5004786;28;19914;-73
2022/11/27 04:05:23;;;;;;;;;;;8.80;99.90;;;;;;4988725;28;20094;-74
2022/11/27 04:07:48;;;;;;;;;;;8.80;99.90;;;;;;4988403;28;19933;-76
2022/11/27 04:10:14;;;;;;;;;;;8.80;99.90;;;;;;4991237;28;19916;-75
2022/11/27 04:12:39;;;;;;;;;;;8.70;99.90;;;;;;4995997;28;19952;-76
2022/11/27 04:15:05;;;;;;;;;;;8.80;99.90;;;;;;5002233;28;19918;-75
2022/11/27 04:17:31;;;;;;;;;;;8.80;99.90;;;;;;4997916;28;19914;-75
2022/11/27 04:19:56;;;;;;;;;;;8.80;99.90;;;;;;4999929;28;19914;-75
2022/11/27 04:22:22;;;;;;;;;;;8.90;99.90;;;;;;4997207;28;19921;-75
2022/11/27 04:24:47;;;;;;;;;;;8.80;99.90;;;;;;4987959;28;19969;-75
2022/11/27 04:27:13;;;;;;;;;;;8.80;99.90;;;;;;4985604;28;19961;-75
2022/11/27 04:29:38;;;;;;;;;;;8.70;99.90;;;;;;4988438;28;20296;-76
2022/11/27 04:32:04;;;;;;;;;;;8.80;99.90;;;;;;4988120;28;20390;-74
2022/11/27 04:34:30;;;;;;;;;;;8.80;99.90;;;;;;4985296;28;19914;-75
2022/11/27 04:36:56;;;;;;;;;;;8.80;99.90;;;;;;5003180;28;19949;-75
2022/11/27 04:39:21;;;;;;;;;;;8.80;99.90;;;;;;4989359;28;19921;-77
2022/11/27 04:41:47;;;;;;;;;;;8.90;99.90;;;;;;4990005;28;19910;-76
2022/11/27 04:44:16;;;;;;;;;;;8.90;99.90;;;;;;4989845;28;20636;-75
2022/11/27 04:46:41;;;;;;;;;;;8.90;99.90;;;;;;4991702;28;19910;-75
2022/11/27 04:49:08;;;;;;;;;;;9.00;99.90;;;;;;4990457;28;19917;-75
2022/11/27 04:51:33;;;;;;;;;;;9.00;99.90;;;;;;4988116;28;19914;-75
2022/11/27 04:53:59;;;;;;;;;;;9.00;99.90;;;;;;4988173;28;19996;-74
2022/11/27 04:56:24;;;;;;;;;;;9.10;99.90;;;;;;4990890;28;19914;-76
2022/11/27 04:58:50;;;;;;;;;;;9.10;99.90;;;;;;4991117;28;19998;-75
2022/11/27 05:01:15;;;;;;;;;;;9.10;99.90;;;;;;4989990;28;19914;-75
2022/11/27 05:03:41;;;;;;;;;;;9.10;99.90;;;;;;4993397;28;19914;-74
2022/11/27 05:06:07;;;;;;;;;;;9.20;99.90;;;;;;4999852;28;19936;-73
2022/11/27 05:08:33;;;;;;;;;;;9.20;99.90;;;;;;5012346;28;19914;-74
2022/11/27 05:11:02;;;;;;;;;;;9.20;99.90;;;;;;5017482;28;19909;-72
2022/11/27 05:13:27;;;;;;;;;;;9.30;99.90;;;;;;5014900;28;19917;-72
2022/11/27 05:15:52;;;;;;;;;;;9.30;99.90;;;;;;4994203;28;19913;-73
2022/11/27 05:18:18;;;;;;;;;;;9.40;99.90;;;;;;4990684;28;19917;-73
2022/11/27 05:20:43;;;;;;;;;;;9.40;99.90;;;;;;4992199;28;20219;-72
2022/11/27 05:23:09;;;;;;;;;;;9.40;99.90;;;;;;5011635;28;19925;-73
2022/11/27 05:25:34;;;;;;;;;;;9.40;99.90;;;;;;4998301;28;19944;-72
2022/11/27 05:28:00;;;;;;;;;;;9.40;99.90;;;;;;4997078;28;20371;-73
2022/11/27 05:30:25;;;;;;;;;;;9.40;99.90;;;;;;4991931;28;19917;-73
2022/11/27 05:32:51;;;;;;;;;;;9.40;99.90;;;;;;4992232;28;20420;-73
2022/11/27 05:35:16;;;;;;;;;;;9.40;99.90;;;;;;4990708;28;19909;-73
2022/11/27 05:37:42;;;;;;;;;;;9.50;99.90;;;;;;4988364;28;19916;-73
2022/11/27 05:40:07;;;;;;;;;;;9.50;99.90;;;;;;4990623;28;20009;-73
2022/11/27 05:42:33;;;;;;;;;;;9.50;99.90;;;;;;4987937;28;20389;-73
2022/11/27 05:44:58;;;;;;;;;;;9.50;99.90;;;;;;4984375;28;19910;-73
2022/11/27 05:47:24;;;;;;;;;;;9.60;99.90;;;;;;4983192;28;19925;-73
2022/11/27 05:49:49;;;;;;;;;;;9.60;99.90;;;;;;4986382;28;20015;-73
2022/11/27 05:52:15;;;;;;;;;;;9.60;99.90;;;;;;4989522;28;19910;-73
2022/11/27 05:54:40;;;;;;;;;;;9.70;99.90;;;;;;4989183;28;19910;-73
2022/11/27 05:57:06;;;;;;;;;;;9.70;99.90;;;;;;4987727;28;20334;-72
2022/11/27 05:59:31;;;;;;;;;;;9.70;99.90;;;;;;4983803;28;19937;-74
2022/11/27 06:01:57;;;;;;;;;;;9.70;99.90;;;;;;4986770;28;19916;-73
2022/11/27 06:04:22;;;;;;;;;;;9.90;99.90;;;;;;4981342;28;20170;-73
2022/11/27 06:06:48;;;;;;;;;;;9.80;99.90;;;;;;4988592;28;19929;-73
2022/11/27 06:09:13;;;;;;;;;;;9.80;99.90;;;;;;4987129;28;19972;-73
2022/11/27 06:11:39;;;;;;;;;;;9.90;99.90;;;;;;4990762;28;19916;-74
2022/11/27 06:14:07;;;;;;;;;;;9.90;99.90;;;;;;4990710;28;19918;-73
2022/11/27 06:16:32;;;;;;;;;;;9.90;99.90;;;;;;4996929;28;19920;-73
2022/11/27 06:18:57;;;;;;;;;;;9.90;99.90;;;;;;5003378;28;19910;-73
2022/11/27 06:21:23;;;;;;;;;;;10.00;99.90;;;;;;5000532;28;19936;-73
2022/11/27 06:23:51;;;;;;;;;;;10.00;99.90;;;;;;4988820;28;19951;-73
2022/11/27 06:26:18;;;;;;;;;;;10.10;99.90;;;;;;4988017;28;19972;-73
2022/11/27 06:28:44;;;;;;;;;;;10.20;99.90;;;;;;4988836;28;19941;-73
2022/11/27 06:31:11;;;;;;;;;;;10.20;99.90;;;;;;4987906;28;20029;-73
2022/11/27 06:33:37;;;;;;;;;;;10.10;99.90;;;;;;4989169;28;19913;-73
2022/11/27 06:36:03;;;;;;;;;;;10.00;99.90;;;;;;4987543;28;19914;-73
2022/11/27 06:38:30;;;;;;;;;;;10.10;99.90;;;;;;4989360;28;19909;-74
2022/11/27 06:41:00;;;;;;;;;;;10.20;99.90;;;;;;5003736;28;20208;-74
2022/11/27 06:43:25;;;;;;;;;;;10.10;99.90;;;;;;4988158;28;19914;-73
2022/11/27 06:45:57;;;;;;;;;;;10.20;99.90;;;;;;4991192;28;19924;-74
2022/11/27 06:48:23;;;;;;;;;;;10.20;99.90;;;;;;4990167;28;20375;-74
2022/11/27 06:50:48;;;;;;;;;;;10.30;99.90;;;;;;4989638;28;19960;-75
2022/11/27 06:53:14;;;;;;;;;;;10.20;99.90;;;;;;5005529;28;20283;-74
2022/11/27 06:55:39;;;;;;;;;;;10.20;99.90;;;;;;4988232;28;20283;-74
2022/11/27 06:58:05;;;;;;;;;;;10.20;99.90;;;;;;4987701;28;19914;-72
2022/11/27 07:00:30;;;;;;;;;;;10.30;99.90;;;;;;4990038;28;19926;-73
2022/11/27 07:02:56;;;;;;;;;;;10.40;99.90;;;;;;5001603;28;19914;-75
2022/11/27 07:05:22;;;;;;;;;;;10.40;99.90;;;;;;4990531;28;19932;-74
2022/11/27 07:07:48;;;;;;;;;;;10.40;99.90;;;;;;4991828;28;19910;-73
2022/11/27 07:10:13;;;;;;;;;;;10.30;99.90;;;;;;4991339;28;19968;-74
2022/11/27 07:12:39;;;;;;;;;;;10.30;99.90;;;;;;4993252;28;20342;-75
2022/11/27 07:15:04;;;;;;;;;;;10.30;99.90;;;;;;4993756;28;19936;-75
2022/11/27 07:17:30;;;;;;;;;;;10.30;99.90;;;;;;5016573;28;19910;-74
2022/11/27 07:19:55;;;;;;;;;;;10.30;99.90;;;;;;4996328;28;19921;-74
2022/11/27 07:22:21;;;;;;;;;;;10.30;99.90;;;;;;5001526;28;19988;-73
2022/11/27 07:24:46;;;;;;;;;;;10.40;99.90;;;;;;4991511;28;19960;-73
2022/11/27 07:27:12;;;;;;;;;;;10.40;99.90;;;;;;4991965;28;19918;-73
2022/11/27 07:29:37;;;;;;;;;;;10.30;99.90;;;;;;4992928;28;20245;-72
2022/11/27 07:32:03;;;;;;;;;;;10.30;99.90;;;;;;4990807;28;19918;-74
2022/11/27 07:34:28;;;;;;;;;;;10.40;99.90;;;;;;5003880;28;20439;-73
2022/11/27 07:36:54;;;;;;;;;;;10.50;99.90;;;;;;4992091;28;19983;-73
2022/11/27 07:39:19;;;;;;;;;;;10.50;99.90;;;;;;4989823;28;19910;-73
2022/11/27 07:41:45;;;;;;;;;;;10.50;99.90;;;;;;4992652;28;20379;-73
2022/11/27 07:44:10;;;;;;;;;;;10.60;99.90;;;;;;4991460;28;19925;-72
2022/11/27 07:46:36;;;;;;;;;;;10.60;99.90;;;;;;4998760;28;20447;-74
2022/11/27 07:49:02;;;;;;;;;;;10.50;99.90;;;;;;4994144;28;20001;-74
2022/11/27 07:51:28;;;;;;;;;;;10.50;99.90;;;;;;4997306;28;19914;-73
2022/11/27 07:53:53;;;;;;;;;;;10.60;99.90;;;;;;4994231;28;20370;-74
2022/11/27 07:56:19;;;;;;;;;;;10.60;99.90;;;;;;4994689;28;20354;-74
2022/11/27 07:58:45;;;;;;;;;;;10.50;99.90;;;;;;4989060;28;19991;-75
2022/11/27 08:01:12;;;;;;;;;;;10.50;99.90;;;;;;4987421;28;19918;-73
2022/11/27 08:03:38;;;;;;;;;;;10.60;99.90;;;;;;4990943;28;20247;-74
2022/11/27 08:06:04;;;;;;;;;;;10.60;99.90;;;;;;4989277;28;19975;-74
2022/11/27 08:08:29;;;;;;;;;;;10.70;99.90;;;;;;4991346;28;20008;-74
2022/11/27 08:10:55;;;;;;;;;;;10.70;99.90;;;;;;5000612;28;19913;-73
2022/11/27 08:13:20;;;;;;;;;;;10.60;99.90;;;;;;4993044;28;19913;-74
2022/11/27 08:15:46;;;;;;;;;;;10.70;99.90;;;;;;4997500;28;19909;-73
2022/11/27 08:18:12;;;;;;;;;;;10.60;99.90;;;;;;4994142;28;20380;-75
2022/11/27 08:20:37;;;;;;;;;;;10.60;99.90;;;;;;4991578;28;20139;-72
2022/11/27 08:23:03;;;;;;;;;;;10.60;99.90;;;;;;4986379;28;20370;-74
2022/11/27 08:25:29;;;;;;;;;;;10.60;99.90;;;;;;5003769;28;19914;-72
2022/11/27 08:27:54;;;;;;;;;;;10.60;99.90;;;;;;4989501;28;20390;-74
2022/11/27 08:30:22;;;;;;;;;;;10.70;99.90;;;;;;4993718;28;19914;-74
2022/11/27 08:32:48;;;;;;;;;;;10.60;99.90;;;;;;4990945;28;19910;-72
2022/11/27 08:35:13;;;;;;;;;;;10.60;99.90;;;;;;4992638;28;19918;-72
2022/11/27 08:37:39;;;;;;;;;;;10.70;99.90;;;;;;4993327;28;19993;-73
2022/11/27 08:40:06;;;;;;;;;;;10.80;99.90;;;;;;5002623;28;19944;-73
2022/11/27 08:42:31;;;;;;;;;;;10.70;99.90;;;;;;5003988;28;20403;-73
2022/11/27 08:44:57;;;;;;;;;;;10.80;99.90;;;;;;4997884;28;20251;-71
2022/11/27 08:47:22;;;;;;;;;;;10.70;99.90;;;;;;4999933;28;19925;-74
2022/11/27 08:49:48;;;;;;;;;;;10.70;99.90;;;;;;4997150;28;19924;-75
2022/11/27 08:52:13;;;;;;;;;;;10.80;99.90;;;;;;4989862;28;20068;-72
2022/11/27 08:54:39;;;;;;;;;;;10.80;99.90;;;;;;5000730;28;19909;-75
2022/11/27 08:57:04;;;;;;;;;;;10.80;99.90;;;;;;4993776;28;19910;-74
2022/11/27 08:59:30;;;;;;;;;;;10.90;99.90;;;;;;4987561;28;20012;-72
2022/11/27 09:01:55;;;;;;;;;;;10.90;99.90;;;;;;5006935;28;21106;-74
2022/11/27 09:04:21;;;;;;;;;;;11.00;99.90;;;;;;4996120;28;19918;-74
2022/11/27 09:06:47;;;;;;;;;;;10.90;99.90;;;;;;4994458;28;19937;-73
2022/11/27 09:09:13;;;;;;;;;;;10.90;99.90;;;;;;4989236;28;19932;-73
2022/11/27 09:11:38;;;;;;;;;;;10.90;99.90;;;;;;4986702;28;19910;-74
2022/11/27 09:14:04;;;;;;;;;;;11.00;99.90;;;;;;4993217;28;19917;-74
2022/11/27 09:16:30;;;;;;;;;;;10.90;99.90;;;;;;4991636;28;19909;-74
2022/11/27 09:18:56;;;;;;;;;;;11.00;99.90;;;;;;4990549;28;20135;-73
2022/11/27 09:21:23;;;;;;;;;;;11.10;99.90;;;;;;5029113;28;19910;-74
2022/11/27 09:23:56;;;;;;;;;;;11.10;99.90;;;;;;5013739;28;19980;-73
2022/11/27 09:26:22;;;;;;;;;;;11.10;99.90;;;;;;5008924;28;19902;-76
2022/11/27 09:28:48;;;;;;;;;;;11.20;99.90;;;;;;5012010;28;19899;-73
2022/11/27 09:31:14;;;;;;;;;;;11.20;99.90;;;;;;5019045;28;20512;-73
2022/11/27 09:33:40;;;;;;;;;;;11.20;99.90;;;;;;5020749;28;19910;-74
2022/11/27 09:36:07;;;;;;;;;;;11.30;99.90;;;;;;4988381;28;19940;-73
2022/11/27 09:38:33;;;;;;;;;;;11.30;99.90;;;;;;4990781;28;20359;-74
2022/11/27 09:41:10;;;;;;;;;;;11.40;99.90;;;;;;4997846;28;19960;-73
2022/11/27 09:43:41;;;;;;;;;;;11.50;99.90;;;;;;4994497;28;20006;-75
2022/11/27 09:46:10;;;;;;;;;;;11.50;99.90;;;;;;4989133;28;19997;-73
2022/11/27 09:48:38;;;;;;;;;;;11.50;99.90;;;;;;5010822;28;19948;-73
2022/11/27 09:51:07;;;;;;;;;;;11.40;99.90;;;;;;4988618;28;19910;-74
2022/11/27 09:54:09;;;;;;;;;;;11.40;99.90;;;;;;4996150;28;19933;-75
2022/11/27 09:56:35;;;;;;;;;;;11.40;99.90;;;;;;4987809;28;20006;-73
2022/11/27 09:59:04;;;;;;;;;;;11.50;99.90;;;;;;5002489;28;19931;-78
2022/11/27 10:01:31;;;;;;;;;;;11.50;99.90;;;;;;4989314;28;20028;-75
2022/11/27 10:03:57;;;;;;;;;;;11.50;99.90;;;;;;4998119;28;19914;-75
2022/11/27 10:06:34;;;;;;;;;;;11.50;99.90;;;;;;4986827;28;20478;-74
2022/11/27 10:09:00;;;;;;;;;;;11.40;99.90;;;;;;5001202;28;19918;-73
2022/11/27 10:11:30;;;;;;;;;;;11.40;99.90;;;;;;4993732;28;20001;-74
2022/11/27 10:14:02;;;;;;;;;;;11.50;99.90;;;;;;5003663;28;19918;-74
2022/11/27 10:16:39;;;;;;;;;;;11.50;99.90;;;;;;5008952;28;19998;-72
2022/11/27 10:19:25;;;;;;;;;;;11.60;99.90;;;;;;4984004;28;19940;-74
2022/11/27 10:21:55;;;;;;;;;;;11.50;99.90;;;;;;4955066;28;19946;-74
2022/11/27 10:24:26;;;;;;;;;;;11.50;99.90;;;;;;4985559;28;20112;-73
2022/11/27 10:26:53;;;;;;;;;;;11.60;99.90;;;;;;4989889;28;19917;-74
2022/11/27 10:29:39;;;;;;;;;;;11.60;99.90;;;;;;4993168;28;20026;-73
2022/11/27 10:32:16;;;;;;;;;;;11.50;99.90;;;;;;4987229;28;19914;-73
2022/11/27 10:34:47;;;;;;;;;;;11.50;99.90;;;;;;4983150;28;19918;-73
2022/11/27 10:37:15;;;;;;;;;;;11.50;99.90;;;;;;4984543;28;19914;-73
2022/11/27 10:39:47;;;;;;;;;;;11.40;99.90;;;;;;4998395;28;19917;-73
2022/11/27 10:42:20;;;;;;;;;;;11.60;99.90;;;;;;4986810;28;19972;-73
2022/11/27 10:45:04;;;;;;;;;;;11.60;99.90;;;;;;4996076;28;20327;-74
2022/11/27 10:47:30;;;;;;;;;;;11.60;99.90;;;;;;4997289;28;20386;-72
2022/11/27 10:49:56;;;;;;;;;;;11.50;99.90;;;;;;4984879;28;19910;-74
2022/11/27 10:52:22;;;;;;;;;;;11.50;99.90;;;;;;4984035;28;19914;-74
2022/11/27 10:54:59;;;;;;;;;;;11.50;99.90;;;;;;4985659;28;20520;-74
2022/11/27 10:57:30;;;;;;;;;;;11.50;99.90;;;;;;4982956;28;19956;-73
2022/11/27 10:59:56;;;;;;;;;;;11.50;99.90;;;;;;4984006;28;19928;-75
2022/11/27 11:02:25;;;;;;;;;;;11.50;99.90;;;;;;4984138;28;19917;-75
2022/11/27 11:04:51;;;;;;;;;;;11.50;99.90;;;;;;4981385;28;19914;-74
2022/11/27 11:07:22;;;;;;;;;;;11.50;99.90;;;;;;4983914;28;19909;-74
2022/11/27 11:09:48;;;;;;;;;;;11.60;99.90;;;;;;4983027;28;19914;-73
2022/11/27 11:12:19;;;;;;;;;;;11.60;99.90;;;;;;5005918;28;19948;-73
2022/11/27 11:14:49;;;;;;;;;;;11.60;99.90;;;;;;4983686;28;19949;-75
2022/11/27 11:17:15;;;;;;;;;;;11.60;99.90;;;;;;4987911;28;19918;-76
2022/11/27 11:19:42;;;;;;;;;;;11.70;99.90;;;;;;4986114;28;19910;-75
2022/11/27 11:22:13;;;;;;;;;;;11.80;99.90;;;;;;4986944;28;19910;-75
2022/11/27 11:24:40;;;;;;;;;;;11.80;99.90;;;;;;5001259;28;19914;-76
2022/11/27 11:27:12;;;;;;;;;;;11.70;99.90;;;;;;4983816;28;19944;-76
2022/11/27 11:29:38;;;;;;;;;;;11.70;99.90;;;;;;4987045;28;19914;-75
2022/11/27 11:32:12;;;;;;;;;;;11.70;99.90;;;;;;4989336;28;20265;-74
2022/11/27 11:34:45;;;;;;;;;;;11.60;99.90;;;;;;4990293;28;21150;-74
2022/11/27 11:37:17;;;;;;;;;;;11.40;99.90;;;;;;4991163;28;19914;-75
2022/11/27 11:39:44;;;;;;;;;;;11.40;99.90;;;;;;4987895;28;19910;-74
2022/11/27 11:42:10;;;;;;;;;;;11.50;99.90;;;;;;4988872;28;19936;-75
2022/11/27 11:44:37;;;;;;;;;;;11.60;99.90;;;;;;4988544;28;19929;-74
2022/11/27 11:47:02;;;;;;;;;;;11.50;99.90;;;;;;4987221;28;20387;-74
2022/11/27 11:49:28;;;;;;;;;;;11.50;99.90;;;;;;4986969;28;19910;-75
2022/11/27 11:52:03;;;;;;;;;;;11.40;99.90;;;;;;4985963;28;20303;-74
2022/11/27 11:54:54;;;;;;;;;;;11.40;99.90;;;;;;4990594;28;20386;-76
2022/11/27 11:57:20;;;;;;;;;;;11.50;99.90;;;;;;4999487;28;19977;-76
2022/11/27 12:00:02;;;;;;;;;;;11.30;99.90;;;;;;5012219;28;19906;-75
2022/11/27 12:02:34;;;;;;;;;;;11.20;99.90;;;;;;5003602;28;19992;-76
2022/11/27 12:05:06;;;;;;;;;;;11.20;99.90;;;;;;4989005;28;19917;-74
2022/11/27 12:07:31;;;;;;;;;;;11.00;99.90;;;;;;4988139;28;19921;-73
2022/11/27 12:10:00;;;;;;;;;;;11.00;99.90;;;;;;4991413;28;19910;-75
2022/11/27 12:12:34;;;;;;;;;;;10.90;99.90;;;;;;4992456;28;19921;-74
2022/11/27 12:15:00;;;;;;;;;;;10.80;99.90;;;;;;4992782;28;19921;-74
2022/11/27 12:17:38;;;;;;;;;;;10.80;99.90;;;;;;5012735;28;19939;-75
2022/11/27 12:20:24;;;;;;;;;;;10.70;99.90;;;;;;4997140;28;19922;-73
2022/11/27 12:22:52;;;;;;;;;;;10.80;99.90;;;;;;4978056;28;19920;-74
2022/11/27 12:25:44;;;;;;;;;;;10.70;99.90;;;;;;4986041;28;19918;-74
2022/11/27 12:28:09;;;;;;;;;;;10.60;99.90;;;;;;4987892;28;19914;-75
2022/11/27 12:30:42;;;;;;;;;;;10.60;99.90;;;;;;4996721;28;19910;-76
2022/11/27 12:33:46;;;;;;;;;;;10.60;99.90;;;;;;4988978;28;20004;-75
2022/11/27 12:36:21;;;;;;;;;;;10.50;99.90;;;;;;4944993;28;20009;-76
2022/11/27 12:38:46;;;;;;;;;;;10.30;99.90;;;;;;4943533;28;20022;-75
2022/11/27 12:41:34;;;;;;;;;;;10.20;99.90;;;;;;4954328;28;19910;-76
2022/11/27 12:43:59;;;;;;;;;;;10.20;99.90;;;;;;4994833;28;19921;-75
2022/11/27 12:46:40;;;;;;;;;;;10.20;99.90;;;;;;4994924;28;20271;-75
2022/11/27 12:49:18;;;;;;;;;;;10.10;99.90;;;;;;5000089;28;20458;-74
2022/11/27 12:51:56;;;;;;;;;;;10.00;99.90;;;;;;5006332;28;19914;-76
2022/11/27 12:54:28;;;;;;;;;;;10.00;99.90;;;;;;4992617;28;19934;-77
2022/11/27 12:56:56;;;;;;;;;;;10.00;99.90;;;;;;4982232;28;20088;-76
2022/11/27 12:59:42;;;;;;;;;;;9.90;99.90;;;;;;4993842;28;19925;-75
2022/11/27 13:02:07;;;;;;;;;;;9.90;99.90;;;;;;4985829;28;19965;-73
2022/11/27 13:04:33;;;;;;;;;;;9.90;99.90;;;;;;4988344;28;20161;-75
2022/11/27 13:07:05;;;;;;;;;;;10.00;99.90;;;;;;4989615;28;19941;-74
2022/11/27 13:09:36;;;;;;;;;;;10.00;99.90;;;;;;4989597;28;20363;-76
2022/11/27 13:12:02;;;;;;;;;;;10.00;99.90;;;;;;4990041;28;20023;-74
2022/11/27 13:14:29;;;;;;;;;;;10.10;99.90;;;;;;4992776;28;20387;-74
2022/11/27 13:17:07;;;;;;;;;;;10.10;99.90;;;;;;4983370;28;20013;-75
2022/11/27 13:19:35;;;;;;;;;;;10.00;99.90;;;;;;4985041;28;19941;-75
2022/11/27 13:22:05;;;;;;;;;;;9.90;99.90;;;;;;4989895;28;19910;-74
2022/11/27 13:24:32;;;;;;;;;;;9.90;99.90;;;;;;4984972;28;19913;-75
2022/11/27 13:27:04;;;;;;;;;;;10.10;99.90;;;;;;4982572;28;20020;-75
2022/11/27 13:29:36;;;;;;;;;;;10.00;99.90;;;;;;4983478;28;19956;-75
2022/11/27 13:32:02;;;;;;;;;;;10.00;99.90;;;;;;4983555;28;19967;-75
2022/11/27 13:34:29;;;;;;;;;;;10.00;99.90;;;;;;4981504;28;19916;-74
2022/11/27 13:36:57;;;;;;;;;;;10.00;99.90;;;;;;4983886;28;19984;-73
2022/11/27 13:39:23;;;;;;;;;;;10.00;99.90;;;;;;4999362;28;20242;-75
2022/11/27 13:41:58;;;;;;;;;;;10.00;99.90;;;;;;4983111;28;20478;-75
2022/11/27 13:44:25;;;;;;;;;;;9.90;99.90;;;;;;4981935;28;19918;-77
2022/11/27 13:46:55;;;;;;;;;;;9.80;99.90;;;;;;4985243;28;19921;-73
2022/11/27 13:49:25;;;;;;;;;;;9.80;99.90;;;;;;4984932;28;19976;-76
2022/11/27 13:52:02;;;;;;;;;;;9.90;99.90;;;;;;4986358;28;20356;-75
2022/11/27 13:54:28;;;;;;;;;;;9.80;99.90;;;;;;4994735;28;20020;-75
2022/11/27 13:56:53;;;;;;;;;;;9.70;99.90;;;;;;4991087;28;19937;-73
2022/11/27 13:59:20;;;;;;;;;;;9.70;99.90;;;;;;4987541;28;20116;-74
2022/11/27 14:01:58;;;;;;;;;;;9.80;99.90;;;;;;4985615;28;19921;-74
2022/11/27 14:04:30;;;;;;;;;;;9.80;99.90;;;;;;4982508;28;20117;-77
2022/11/27 14:07:06;;;;;;;;;;;9.90;99.90;;;;;;4983640;28;20004;-75
2022/11/27 14:09:37;;;;;;;;;;;9.90;99.90;;;;;;4987978;28;20147;-75
2022/11/27 14:12:32;;;;;;;;;;;10.00;99.90;;;;;;4987245;28;19932;-74
2022/11/27 14:15:03;;;;;;;;;;;9.90;99.90;;;;;;4983016;28;19940;-74
2022/11/27 14:17:33;;;;;;;;;;;9.80;99.90;;;;;;4981909;28;20248;-74
2022/11/27 14:20:17;;;;;;;;;;;9.90;99.90;;;;;;4983787;28;19924;-75
2022/11/27 14:22:44;;;;;;;;;;;9.80;99.90;;;;;;4985427;28;19932;-74
2022/11/27 14:25:25;;;;;;;;;;;9.80;99.90;;;;;;4985567;28;19922;-74
2022/11/27 14:28:10;;;;;;;;;;;9.90;99.90;;;;;;4983692;28;19972;-73
2022/11/27 14:30:40;;;;;;;;;;;9.80;99.90;;;;;;4993626;28;20450;-74